Wetterdaten: Woche 03.06.19 - 09.06.19 (KW23)
Datum Zeit Temperatur Wassertemp. Luftfeuchte Luftdruck Niederschlag Windrichtung Sonnenschein Solar Wind
03.06.2019 00:00 14,1 C 18,9 C 74 % 1013,1 hPa 0,0 l/m N 0,00 h 0 W/m 0,0 km/h (0 Bft)
03.06.2019 01:00 13,3 C 18,5 C 76 % 1013,1 hPa 0,0 l/m N 0,00 h 0 W/m 0,0 km/h (0 Bft)
03.06.2019 02:00 12,7 C 18,3 C 81 % 1013,1 hPa 0,0 l/m N 0,00 h 0 W/m 0,0 km/h (0 Bft)
03.06.2019 03:00 12,2 C 18,0 C 84 % 1012,9 hPa 0,0 l/m N 0,00 h 0 W/m 0,0 km/h (0 Bft)
03.06.2019 04:00 11,4 C 17,8 C 87 % 1012,9 hPa 0,0 l/m N 0,00 h 0 W/m 0,0 km/h (0 Bft)
03.06.2019 05:00 11,1 C 17,5 C 88 % 1013,0 hPa 0,0 l/m N 0,08 h 12 W/m 0,0 km/h (0 Bft)
03.06.2019 06:00 12,1 C 17,2 C 88 % 1013,1 hPa 0,0 l/m N 0,42 h 75 W/m 0,0 km/h (0 Bft)
03.06.2019 07:00 14,4 C 17,2 C 84 % 1013,3 hPa 0,0 l/m N 0,92 h 257 W/m 0,4 km/h (0 Bft)
03.06.2019 08:00 18,5 C 16,7 C 72 % 1013,2 hPa 0,0 l/m SW 1,00 h 432 W/m 5,6 km/h (1 Bft)
03.06.2019 09:00 21,6 C 16,7 C 62 % 1013,2 hPa 0,0 l/m SW 0,83 h 463 W/m 7,8 km/h (2 Bft)
03.06.2019 10:00 23,9 C 17,0 C 58 % 1012,8 hPa 0,0 l/m SW 0,92 h 675 W/m 9,4 km/h (2 Bft)
03.06.2019 11:00 25,7 C 17,7 C 55 % 1012,5 hPa 0,0 l/m S-SO 1,00 h 850 W/m 10,3 km/h (2 Bft)
03.06.2019 12:00 27,0 C 18,3 C 51 % 1012,1 hPa 0,0 l/m W-SW 1,00 h 905 W/m 13,3 km/h (3 Bft)
03.06.2019 13:00 28,1 C 18,7 C 45 % 1011,7 hPa 0,0 l/m W-SW 1,00 h 933 W/m 15,8 km/h (3 Bft)
03.06.2019 14:00 28,6 C 18,9 C 40 % 1011,0 hPa 0,0 l/m S-SW 0,92 h 869 W/m 15,3 km/h (3 Bft)
03.06.2019 15:00 28,8 C 18,9 C 37 % 1010,7 hPa 0,0 l/m W-SW 1,00 h 815 W/m 18,4 km/h (3 Bft)
03.06.2019 16:00 29,0 C 19,4 C 33 % 1010,7 hPa 0,0 l/m SW 1,00 h 698 W/m 16,9 km/h (3 Bft)
03.06.2019 17:00 25,1 C 19,8 C 55 % 1011,6 hPa 0,0 l/m N-NW 0,83 h 407 W/m 24,8 km/h (4 Bft)
03.06.2019 18:00 21,9 C 20,0 C 65 % 1011,7 hPa 0,0 l/m N-NO 0,50 h 224 W/m 17,7 km/h (3 Bft)
03.06.2019 19:00 20,8 C 20,0 C 68 % 1012,0 hPa 0,0 l/m N 0,42 h 142 W/m 8,2 km/h (2 Bft)
03.06.2019 20:00 19,9 C 19,5 C 72 % 1013,0 hPa 0,0 l/m N 0,08 h 43 W/m 0,5 km/h (0 Bft)
03.06.2019 21:00 18,3 C 19,4 C 79 % 1013,5 hPa 0,0 l/m N 0,08 h 7 W/m 0,0 km/h (0 Bft)
03.06.2019 22:00 16,6 C 19,4 C 86 % 1013,7 hPa 0,0 l/m N 0,00 h 0 W/m 0,0 km/h (0 Bft)
03.06.2019 23:00 16,0 C 19,4 C 86 % 1013,4 hPa 0,0 l/m N 0,00 h 0 W/m 0,0 km/h (0 Bft)
04.06.2019 00:00 15,3 C 19,4 C 89 % 1012,9 hPa 0,0 l/m N 0,00 h 0 W/m 0,0 km/h (0 Bft)
04.06.2019 01:00 14,5 C 19,4 C 90 % 1012,3 hPa 0,0 l/m N 0,00 h 0 W/m 0,3 km/h (0 Bft)
04.06.2019 02:00 14,5 C 18,9 C 90 % 1012,0 hPa 0,0 l/m N-NW 0,00 h 0 W/m 0,8 km/h (0 Bft)
04.06.2019 03:00 14,3 C 18,9 C 91 % 1011,6 hPa 0,0 l/m N 0,00 h 0 W/m 0,1 km/h (0 Bft)
04.06.2019 04:00 13,5 C 18,9 C 92 % 1011,1 hPa 0,0 l/m N 0,00 h 0 W/m 0,0 km/h (0 Bft)
04.06.2019 05:00 12,7 C 18,7 C 95 % 1010,7 hPa 0,0 l/m N 0,00 h 13 W/m 0,0 km/h (0 Bft)
04.06.2019 06:00 13,3 C 18,3 C 95 % 1010,6 hPa 0,0 l/m N-NW 0,25 h 71 W/m 3,6 km/h (1 Bft)
04.06.2019 07:00 15,6 C 18,3 C 88 % 1010,8 hPa 0,0 l/m N 0,92 h 229 W/m 0,4 km/h (0 Bft)
04.06.2019 08:00 17,6 C 18,3 C 82 % 1010,7 hPa 0,0 l/m N 1,00 h 411 W/m 0,3 km/h (0 Bft)
04.06.2019 09:00 21,0 C 18,3 C 71 % 1010,3 hPa 0,0 l/m O-NO 0,75 h 433 W/m 3,5 km/h (1 Bft)
04.06.2019 10:00 23,2 C 18,3 C 64 % 1009,9 hPa 0,0 l/m O 0,92 h 661 W/m 5,5 km/h (1 Bft)
04.06.2019 11:00 25,6 C 18,6 C 54 % 1009,3 hPa 0,0 l/m O 1,00 h 822 W/m 12,8 km/h (3 Bft)
04.06.2019 12:00 27,3 C 18,9 C 48 % 1008,7 hPa 0,0 l/m SO 1,00 h 888 W/m 13,0 km/h (3 Bft)
04.06.2019 13:00 28,5 C 19,2 C 45 % 1008,0 hPa 0,0 l/m O-SO 1,00 h 898 W/m 13,3 km/h (3 Bft)
04.06.2019 14:00 29,3 C 19,4 C 40 % 1007,5 hPa 0,0 l/m O-SO 1,00 h 868 W/m 14,0 km/h (3 Bft)
04.06.2019 15:00 30,1 C 19,5 C 36 % 1006,9 hPa 0,0 l/m O-SO 1,00 h 788 W/m 13,6 km/h (3 Bft)
04.06.2019 16:00 30,2 C 20,0 C 36 % 1006,4 hPa 0,0 l/m O 1,00 h 654 W/m 11,5 km/h (2 Bft)
04.06.2019 17:00 29,8 C 20,0 C 37 % 1006,0 hPa 0,0 l/m O 1,00 h 486 W/m 14,1 km/h (3 Bft)
04.06.2019 18:00 29,3 C 20,2 C 38 % 1005,7 hPa 0,0 l/m O-SO 1,00 h 332 W/m 12,9 km/h (3 Bft)
04.06.2019 19:00 27,8 C 20,1 C 44 % 1005,6 hPa 0,0 l/m O 0,92 h 171 W/m 10,8 km/h (2 Bft)
04.06.2019 20:00 25,5 C 20,0 C 51 % 1005,3 hPa 0,0 l/m O 0,00 h 37 W/m 3,5 km/h (1 Bft)
04.06.2019 21:00 21,3 C 20,0 C 68 % 1005,1 hPa 0,0 l/m N 0,00 h 6 W/m 0,0 km/h (0 Bft)
04.06.2019 22:00 19,3 C 20,0 C 73 % 1005,4 hPa 0,0 l/m N 0,00 h 0 W/m 0,0 km/h (0 Bft)
04.06.2019 23:00 18,0 C 20,0 C 78 % 1005,2 hPa 0,0 l/m N 0,00 h 0 W/m 0,0 km/h (0 Bft)
05.06.2019 00:00 17,3 C 20,0 C 81 % 1005,2 hPa 0,0 l/m N 0,00 h 0 W/m 0,0 km/h (0 Bft)
05.06.2019 01:00 16,7 C 20,0 C 82 % 1005,0 hPa 0,0 l/m N 0,00 h 0 W/m 0,0 km/h (0 Bft)
05.06.2019 02:00 16,4 C 19,5 C 84 % 1004,7 hPa 0,0 l/m N 0,00 h 0 W/m 0,0 km/h (0 Bft)
05.06.2019 03:00 16,3 C 19,4 C 85 % 1004,5 hPa 0,0 l/m N 0,00 h 0 W/m 0,1 km/h (0 Bft)
05.06.2019 04:00 16,3 C 19,4 C 85 % 1004,7 hPa 0,0 l/m O 0,00 h 0 W/m 6,8 km/h (2 Bft)
05.06.2019 05:00 15,3 C 19,2 C 88 % 1005,0 hPa 0,0 l/m N 0,00 h 12 W/m 0,0 km/h (0 Bft)
05.06.2019 06:00 15,1 C 18,9 C 91 % 1005,4 hPa 0,0 l/m N 0,17 h 65 W/m 0,1 km/h (0 Bft)
05.06.2019 07:00 17,5 C 18,9 C 84 % 1005,6 hPa 0,0 l/m N 0,83 h 240 W/m 0,0 km/h (0 Bft)
05.06.2019 08:00 19,7 C 18,9 C 79 % 1005,7 hPa 0,0 l/m N 1,00 h 414 W/m 2,0 km/h (1 Bft)
05.06.2019 09:00 22,3 C 18,9 C 70 % 1005,5 hPa 0,0 l/m N-NW 0,75 h 428 W/m 2,8 km/h (1 Bft)
05.06.2019 10:00 25,0 C 18,9 C 54 % 1005,1 hPa 0,0 l/m N 0,92 h 654 W/m 5,4 km/h (1 Bft)
05.06.2019 11:00 26,6 C 19,1 C 42 % 1004,7 hPa 0,0 l/m O 1,00 h 834 W/m 14,1 km/h (3 Bft)
05.06.2019 12:00 27,7 C 19,5 C 44 % 1004,2 hPa 0,0 l/m O 1,00 h 894 W/m 16,4 km/h (3 Bft)
05.06.2019 13:00 28,2 C 20,0 C 46 % 1003,6 hPa 0,0 l/m NO 1,00 h 904 W/m 17,7 km/h (3 Bft)
05.06.2019 14:00 29,2 C 20,4 C 44 % 1002,8 hPa 0,0 l/m O-NO 1,00 h 870 W/m 17,6 km/h (3 Bft)
05.06.2019 15:00 29,5 C 20,6 C 42 % 1001,9 hPa 0,0 l/m O-NO 1,00 h 788 W/m 20,1 km/h (4 Bft)
05.06.2019 16:00 30,0 C 20,6 C 39 % 1001,1 hPa 0,0 l/m O-SO 1,00 h 671 W/m 22,0 km/h (4 Bft)
05.06.2019 17:00 29,9 C 21,0 C 40 % 1000,4 hPa 0,0 l/m O-NO 1,00 h 513 W/m 18,9 km/h (3 Bft)
05.06.2019 18:00 29,3 C 21,1 C 35 % 999,9 hPa 0,0 l/m O 1,00 h 350 W/m 20,5 km/h (4 Bft)
05.06.2019 19:00 27,8 C 21,1 C 41 % 999,6 hPa 0,0 l/m O 1,00 h 169 W/m 18,4 km/h (3 Bft)
05.06.2019 20:00 26,1 C 21,1 C 50 % 999,5 hPa 0,0 l/m O-SO 1,00 h 86 W/m 10,6 km/h (2 Bft)
05.06.2019 21:00 24,5 C 21,1 C 59 % 999,5 hPa 0,0 l/m O-NO 0,08 h 8 W/m 9,4 km/h (2 Bft)
05.06.2019 22:00 21,0 C 20,9 C 73 % 999,3 hPa 0,0 l/m N 0,00 h 0 W/m 0,0 km/h (0 Bft)
05.06.2019 23:00 19,6 C 20,6 C 78 % 999,5 hPa 0,0 l/m N 0,00 h 0 W/m 0,0 km/h (0 Bft)
06.06.2019 00:00 18,4 C 20,6 C 81 % 999,6 hPa 0,0 l/m SO 0,00 h 0 W/m 1,6 km/h (1 Bft)
06.06.2019 01:00 20,2 C 20,6 C 59 % 1000,5 hPa 0,0 l/m W-SW 0,00 h 0 W/m 20,9 km/h (4 Bft)
06.06.2019 02:00 20,1 C 20,1 C 63 % 1001,8 hPa 0,0 l/m W-NW 0,00 h 0 W/m 27,4 km/h (4 Bft)
06.06.2019 03:00 18,5 C 20,0 C 69 % 1003,3 hPa 0,0 l/m W-NW 0,00 h 0 W/m 29,8 km/h (5 Bft)
06.06.2019 04:00 16,7 C 19,6 C 69 % 1004,3 hPa 0,0 l/m W 0,00 h 0 W/m 18,0 km/h (3 Bft)
06.06.2019 05:00 15,9 C 19,4 C 74 % 1005,3 hPa 0,0 l/m W 0,00 h 7 W/m 11,4 km/h (2 Bft)
06.06.2019 06:00 15,1 C 19,0 C 79 % 1006,3 hPa 0,0 l/m SW 0,00 h 41 W/m 13,8 km/h (3 Bft)
06.06.2019 07:00 14,7 C 18,9 C 78 % 1007,3 hPa 0,0 l/m SW 0,42 h 201 W/m 12,5 km/h (3 Bft)
06.06.2019 08:00 15,3 C 18,9 C 77 % 1008,0 hPa 0,0 l/m W 0,50 h 255 W/m 10,9 km/h (2 Bft)
06.06.2019 09:00 15,1 C 18,8 C 77 % 1008,6 hPa 0,0 l/m W-NW 0,00 h 164 W/m 8,1 km/h (2 Bft)
06.06.2019 10:00 15,2 C 18,3 C 77 % 1009,0 hPa 0,0 l/m W-NW 0,00 h 131 W/m 2,7 km/h (1 Bft)
06.06.2019 11:00 14,9 C 18,3 C 79 % 1009,4 hPa 0,0 l/m NW 0,00 h 66 W/m 3,9 km/h (1 Bft)
06.06.2019 12:00 14,7 C 18,3 C 79 % 1009,7 hPa 0,0 l/m NW 0,00 h 135 W/m 10,2 km/h (2 Bft)
06.06.2019 13:00 14,7 C 18,2 C 79 % 1010,1 hPa 0,0 l/m NW 0,00 h 115 W/m 7,8 km/h (2 Bft)
06.06.2019 14:00 14,6 C 17,8 C 80 % 1010,4 hPa 0,0 l/m W-NW 0,00 h 133 W/m 10,3 km/h (2 Bft)
06.06.2019 15:00 13,9 C 17,8 C 82 % 1011,1 hPa 0,0 l/m NW 0,00 h 91 W/m 11,8 km/h (2 Bft)
06.06.2019 16:00 12,9 C 17,8 C 85 % 1011,6 hPa 0,0 l/m NW 0,00 h 90 W/m 16,0 km/h (3 Bft)
06.06.2019 17:00 12,4 C 17,4 C 86 % 1012,1 hPa 0,0 l/m N-NO 0,00 h 63 W/m 12,5 km/h (3 Bft)
06.06.2019 18:00 12,1 C 17,2 C 84 % 1012,5 hPa 0,0 l/m NW 0,00 h 67 W/m 7,9 km/h (2 Bft)
06.06.2019 19:00 12,1 C 17,2 C 84 % 1013,0 hPa 0,0 l/m N-NW 0,00 h 70 W/m 2,8 km/h (1 Bft)
06.06.2019 20:00 11,8 C 17,0 C 84 % 1013,5 hPa 0,0 l/m N 0,08 h 35 W/m 1,1 km/h (0 Bft)
06.06.2019 21:00 11,3 C 16,7 C 87 % 1013,5 hPa 0,0 l/m N 0,08 h 8 W/m 0,9 km/h (0 Bft)
06.06.2019 22:00 9,7 C 16,7 C 92 % 1013,7 hPa 0,0 l/m N 0,00 h 0 W/m 0,4 km/h (0 Bft)
06.06.2019 23:00 9,8 C 16,6 C 92 % 1013,5 hPa 0,0 l/m N 0,00 h 0 W/m 1,3 km/h (1 Bft)
07.06.2019 00:00 9,0 C 16,1 C 93 % 1013,4 hPa 0,0 l/m N 0,00 h 0 W/m 1,1 km/h (0 Bft)
07.06.2019 01:00 8,7 C 16,1 C 94 % 1012,9 hPa 0,0 l/m N-NW 0,00 h 0 W/m 2,7 km/h (1 Bft)
07.06.2019 02:00 8,5 C 15,7 C 93 % 1012,5 hPa 0,0 l/m N-NW 0,00 h 0 W/m 1,2 km/h (1 Bft)
07.06.2019 03:00 7,9 C 15,6 C 95 % 1012,7 hPa 0,0 l/m N-NW 0,00 h 0 W/m 2,7 km/h (1 Bft)
07.06.2019 04:00 8,0 C 15,5 C 96 % 1012,7 hPa 0,0 l/m N 0,00 h 0 W/m 0,7 km/h (0 Bft)
07.06.2019 05:00 7,6 C 15,0 C 96 % 1012,1 hPa 0,0 l/m N 0,00 h 13 W/m 0,0 km/h (0 Bft)
07.06.2019 06:00 8,1 C 15,0 C 96 % 1012,0 hPa 0,0 l/m N 0,25 h 73 W/m 1,7 km/h (1 Bft)
07.06.2019 07:00 9,9 C 14,8 C 93 % 1011,9 hPa 0,0 l/m NO 0,67 h 208 W/m 7,4 km/h (2 Bft)
07.06.2019 08:00 10,4 C 14,4 C 92 % 1011,6 hPa 0,0 l/m O-NO 0,08 h 215 W/m 8,4 km/h (2 Bft)
07.06.2019 09:00 12,5 C 14,4 C 88 % 1011,1 hPa 0,0 l/m O-NO 0,75 h 483 W/m 11,0 km/h (2 Bft)
07.06.2019 10:00 14,6 C 15,0 C 82 % 1010,2 hPa 0,0 l/m O 0,83 h 644 W/m 14,6 km/h (3 Bft)
07.06.2019 11:00 17,9 C 15,4 C 76 % 1009,6 hPa 0,0 l/m NO 1,00 h 847 W/m 11,4 km/h (2 Bft)
07.06.2019 12:00 21,2 C 15,9 C 67 % 1008,9 hPa 0,0 l/m O 1,00 h 910 W/m 11,8 km/h (2 Bft)
07.06.2019 13:00 24,2 C 16,3 C 59 % 1008,2 hPa 0,0 l/m O-SO 1,00 h 925 W/m 13,2 km/h (3 Bft)
07.06.2019 14:00 26,4 C 16,7 C 51 % 1007,4 hPa 0,0 l/m O-SO 1,00 h 889 W/m 12,8 km/h (3 Bft)
07.06.2019 15:00 28,2 C 16,7 C 41 % 1006,5 hPa 0,0 l/m SO 1,00 h 808 W/m 15,4 km/h (3 Bft)
07.06.2019 16:00 29,0 C 17,2 C 32 % 1005,6 hPa 0,0 l/m SO 1,00 h 688 W/m 21,6 km/h (4 Bft)
07.06.2019 17:00 29,0 C 17,4 C 31 % 1006,0 hPa 0,0 l/m S-SW 1,00 h 534 W/m 18,4 km/h (3 Bft)
07.06.2019 18:00 27,7 C 17,8 C 35 % 1006,2 hPa 0,0 l/m SW 0,83 h 332 W/m 18,6 km/h (3 Bft)
07.06.2019 19:00 25,3 C 17,8 C 47 % 1007,3 hPa 0,0 l/m W 0,75 h 159 W/m 24,9 km/h (4 Bft)
07.06.2019 20:00 22,5 C 17,8 C 54 % 1008,5 hPa 0,0 l/m W 0,00 h 27 W/m 15,3 km/h (3 Bft)
07.06.2019 21:00 19,6 C 17,8 C 59 % 1011,0 hPa 0,0 l/m W-NW 0,00 h 6 W/m 21,7 km/h (4 Bft)
07.06.2019 22:00 16,1 C 17,8 C 68 % 1014,1 hPa 0,0 l/m W-NW 0,00 h 0 W/m 21,4 km/h (4 Bft)
07.06.2019 23:00 14,7 C 17,8 C 66 % 1015,6 hPa 0,0 l/m W 0,00 h 0 W/m 28,3 km/h (4 Bft)
08.06.2019 00:00 13,5 C 17,2 C 66 % 1016,6 hPa 0,0 l/m W-SW 0,00 h 0 W/m 14,4 km/h (3 Bft)
08.06.2019 01:00 13,2 C 17,2 C 69 % 1016,9 hPa 0,0 l/m SW 0,00 h 0 W/m 12,9 km/h (3 Bft)
08.06.2019 02:00 12,9 C 16,8 C 71 % 1017,2 hPa 0,0 l/m SW 0,00 h 0 W/m 12,3 km/h (3 Bft)
08.06.2019 03:00 12,5 C 16,7 C 75 % 1018,1 hPa 0,0 l/m SW 0,00 h 0 W/m 11,6 km/h (2 Bft)
08.06.2019 04:00 12,2 C 16,7 C 78 % 1018,6 hPa 0,0 l/m SW 0,00 h 0 W/m 11,7 km/h (2 Bft)
08.06.2019 05:00 12,0 C 16,1 C 79 % 1019,1 hPa 0,0 l/m W-SW 0,00 h 6 W/m 14,1 km/h (3 Bft)
08.06.2019 06:00 12,2 C 16,1 C 77 % 1019,8 hPa 0,0 l/m W-SW 0,00 h 23 W/m 12,2 km/h (2 Bft)
08.06.2019 07:00 12,4 C 16,0 C 77 % 1020,3 hPa 0,0 l/m W-SW 0,00 h 95 W/m 9,5 km/h (2 Bft)
08.06.2019 08:00 13,1 C 15,6 C 79 % 1020,7 hPa 0,0 l/m SW 0,00 h 169 W/m 13,6 km/h (3 Bft)
08.06.2019 09:00 13,8 C 15,6 C 71 % 1021,1 hPa 0,0 l/m W-SW 0,00 h 268 W/m 19,4 km/h (3 Bft)
08.06.2019 10:00 15,2 C 15,6 C 60 % 1021,3 hPa 0,0 l/m W-SW 0,42 h 562 W/m 24,3 km/h (4 Bft)
08.06.2019 11:00 16,5 C 16,1 C 51 % 1021,4 hPa 0,0 l/m W-SW 1,00 h 906 W/m 28,2 km/h (4 Bft)
08.06.2019 12:00 17,8 C 16,6 C 48 % 1021,5 hPa 0,0 l/m W-SW 1,00 h 930 W/m 24,9 km/h (4 Bft)
08.06.2019 13:00 18,9 C 16,7 C 44 % 1021,2 hPa 0,0 l/m W-SW 1,00 h 943 W/m 23,3 km/h (4 Bft)
08.06.2019 14:00 20,0 C 16,7 C 41 % 1021,0 hPa 0,0 l/m W-SW 1,00 h 911 W/m 24,9 km/h (4 Bft)
08.06.2019 15:00 20,9 C 16,7 C 37 % 1020,9 hPa 0,0 l/m W-SW 1,00 h 828 W/m 21,1 km/h (4 Bft)
08.06.2019 16:00 21,5 C 17,2 C 36 % 1020,7 hPa 0,0 l/m S-SW 1,00 h 704 W/m 19,0 km/h (3 Bft)
08.06.2019 17:00 21,8 C 17,3 C 33 % 1020,3 hPa 0,0 l/m SW 1,00 h 554 W/m 14,5 km/h (3 Bft)
08.06.2019 18:00 21,7 C 17,7 C 33 % 1020,3 hPa 0,0 l/m W-SW 1,00 h 380 W/m 12,9 km/h (3 Bft)
08.06.2019 19:00 20,6 C 17,4 C 36 % 1020,3 hPa 0,0 l/m W-SW 1,00 h 189 W/m 5,6 km/h (1 Bft)
08.06.2019 20:00 18,2 C 17,2 C 47 % 1020,2 hPa 0,0 l/m N 0,00 h 37 W/m 0,3 km/h (0 Bft)
08.06.2019 21:00 14,8 C 17,2 C 59 % 1020,8 hPa 0,0 l/m N 0,08 h 8 W/m 0,0 km/h (0 Bft)
08.06.2019 22:00 13,6 C 17,2 C 64 % 1021,1 hPa 0,0 l/m W-SW 0,00 h 0 W/m 2,0 km/h (1 Bft)
08.06.2019 23:00 13,3 C 16,8 C 63 % 1021,4 hPa 0,0 l/m W-NW 0,00 h 0 W/m 3,6 km/h (1 Bft)
09.06.2019 00:00 12,3 C 16,7 C 69 % 1021,6 hPa 0,0 l/m N 0,00 h 0 W/m 0,4 km/h (0 Bft)
09.06.2019 01:00 11,8 C 16,7 C 71 % 1021,4 hPa 0,0 l/m W-NW 0,00 h 0 W/m 1,7 km/h (1 Bft)
09.06.2019 02:00 11,4 C 16,3 C 68 % 1021,4 hPa 0,0 l/m NW 0,00 h 0 W/m 5,0 km/h (1 Bft)
09.06.2019 03:00 10,8 C 16,1 C 71 % 1021,1 hPa 0,0 l/m NW 0,00 h 0 W/m 6,0 km/h (2 Bft)
09.06.2019 04:00 10,3 C 16,0 C 75 % 1020,8 hPa 0,0 l/m NW 0,00 h 0 W/m 4,5 km/h (1 Bft)
09.06.2019 05:00 9,9 C 15,6 C 77 % 1020,8 hPa 0,0 l/m N 0,17 h 14 W/m 1,5 km/h (1 Bft)
09.06.2019 06:00 10,6 C 15,6 C 76 % 1020,5 hPa 0,0 l/m NW 0,58 h 91 W/m 4,8 km/h (1 Bft)
09.06.2019 07:00 12,3 C 15,5 C 71 % 1020,4 hPa 0,0 l/m N 0,75 h 219 W/m 4,8 km/h (1 Bft)
09.06.2019 08:00 13,7 C 15,0 C 69 % 1019,9 hPa 0,0 l/m N-NO 0,67 h 311 W/m 7,6 km/h (2 Bft)
09.06.2019 09:00 16,0 C 15,0 C 66 % 1019,3 hPa 0,0 l/m O-NO 0,58 h 440 W/m 4,9 km/h (1 Bft)
09.06.2019 10:00 18,6 C 15,5 C 61 % 1019,0 hPa 0,0 l/m O-NO 1,00 h 626 W/m 7,9 km/h (2 Bft)
09.06.2019 11:00 19,6 C 15,7 C 61 % 1018,9 hPa 0,0 l/m O-SO 0,42 h 409 W/m 4,8 km/h (1 Bft)
09.06.2019 12:00 20,1 C 16,1 C 61 % 1018,6 hPa 0,0 l/m O-SO 0,08 h 381 W/m 3,7 km/h (1 Bft)
09.06.2019 13:00 19,9 C 16,1 C 65 % 1018,6 hPa 0,0 l/m S-SO 0,00 h 286 W/m 5,2 km/h (1 Bft)
09.06.2019 14:00 19,6 C 16,2 C 66 % 1018,3 hPa 0,0 l/m S-SW 0,00 h 318 W/m 7,9 km/h (2 Bft)
09.06.2019 15:00 20,5 C 16,7 C 61 % 1018,2 hPa 0,0 l/m W-NW 0,42 h 427 W/m 14,9 km/h (3 Bft)
09.06.2019 16:00 18,8 C 16,7 C 67 % 1018,7 hPa 0,0 l/m W 0,00 h 166 W/m 15,6 km/h (3 Bft)
09.06.2019 17:00 16,6 C 16,7 C 80 % 1019,0 hPa 0,4 l/m W 0,00 h 91 W/m 10,5 km/h (2 Bft)
09.06.2019 18:00 15,2 C 16,7 C 90 % 1017,9 hPa 0,2 l/m N 0,00 h 40 W/m 0,9 km/h (0 Bft)
09.06.2019 19:00 15,3 C 16,7 C 91 % 1016,8 hPa 0,0 l/m SW 0,00 h 45 W/m 9,4 km/h (2 Bft)
09.06.2019 20:00 15,3 C 16,7 C 90 % 1016,3 hPa 0,0 l/m S-SW 0,00 h 30 W/m 3,9 km/h (1 Bft)
09.06.2019 21:00 14,9 C 16,7 C 90 % 1016,4 hPa 0,0 l/m N 0,08 h 8 W/m 1,3 km/h (1 Bft)
09.06.2019 22:00 14,0 C 16,7 C 93 % 1016,4 hPa 0,0 l/m NW 0,00 h 0 W/m 6,7 km/h (2 Bft)
09.06.2019 23:00 13,0 C 16,4 C 95 % 1015,6 hPa 0,0 l/m N-NW 0,00 h 0 W/m 2,4 km/h (1 Bft)
Min-Datum _ 07.06.19 07.06.19 03.06.19 05.06.19 - - - - 03.06.19
_ Min-Zeit 05:40 07:40 16:45 22:15 - - - - 00:00
Minimum _ 7,4 C 14,4 C 28 % 999,1 hPa - - - - 0,0 km/h (0 Bft)
Max-Datum _ 04.06.19 05.06.19 07.06.19 08.06.19 09.06.19 - 03.06.19 08.06.19 06.06.19
_ Max-Zeit 16:30 17:15 06:10 23:55 17:45 - 05:40 10:50 03:20
Maximum _ 30,6 C 21,1 C 97 % 1021,7 hPa 0,4 l/m - 0,08 h 1018 W/m 41,8 km/h
W-NW (6 Bft)
Durchschnitt _ 18,1 C 17,9 C 69 % 1011,8 hPa #0,6 l/m W-SW #65:00 h 372 W/m 9,0 km/h (2 Bft)